createdAt,value
2023-05-13T00:02:01.179Z,31.35
2023-05-13T00:04:28.314Z,33.33
2023-05-13T00:06:55.636Z,35.33
2023-05-13T00:09:28.207Z,35.33
2023-05-13T00:11:57.728Z,37.40
2023-05-13T00:14:24.976Z,34.55
2023-05-13T00:16:52.195Z,36.38
2023-05-13T00:19:19.323Z,34.28
2023-05-13T00:21:46.336Z,33.33
2023-05-13T00:24:13.580Z,33.55
2023-05-13T00:26:40.679Z,28.67
2023-05-13T00:29:07.739Z,29.05
2023-05-13T00:31:35.056Z,30.52
2023-05-13T00:34:02.154Z,31.00
2023-05-13T00:36:29.340Z,30.08
2023-05-13T00:38:56.411Z,30.42
2023-05-13T00:41:23.474Z,31.77
2023-05-13T00:43:52.290Z,31.13
2023-05-13T00:46:19.348Z,32.00
2023-05-13T00:48:46.416Z,33.53
2023-05-13T00:51:13.525Z,33.33
2023-05-13T00:53:40.530Z,29.80
2023-05-13T00:56:07.601Z,27.50
2023-05-13T00:58:34.922Z,24.52
2023-05-13T01:01:05.031Z,25.65
2023-05-13T01:04:02.903Z,25.08
2023-05-13T01:06:51.699Z,25.35
2023-05-13T01:09:23.930Z,25.83
2023-05-13T01:11:50.949Z,25.63
2023-05-13T01:14:25.537Z,26.60
2023-05-13T01:16:53.950Z,25.63
2023-05-13T01:19:26.807Z,20.85
2023-05-13T01:21:54.696Z,21.10
2023-05-13T01:24:21.807Z,19.80
2023-05-13T01:26:49.561Z,20.90
2023-05-13T01:29:16.688Z,20.08
2023-05-13T01:31:43.744Z,17.55
2023-05-13T01:34:11.550Z,16.77
2023-05-13T01:36:39.495Z,17.92
2023-05-13T01:39:06.520Z,16.67
2023-05-13T01:41:33.563Z,17.45
2023-05-13T01:44:00.809Z,16.00
2023-05-13T01:46:27.850Z,14.52
2023-05-13T01:48:54.980Z,14.38
2023-05-13T01:51:21.961Z,14.45
2023-05-13T01:53:48.953Z,14.88
2023-05-13T01:56:16.009Z,13.00
2023-05-13T01:58:43.007Z,14.05
2023-05-13T02:01:10.158Z,14.50
2023-05-13T02:03:37.843Z,14.43
2023-05-13T02:06:05.196Z,12.68
2023-05-13T02:08:32.520Z,12.93
2023-05-13T02:10:59.730Z,13.50
2023-05-13T02:13:26.880Z,13.05
2023-05-13T02:15:54.616Z,12.77
2023-05-13T02:18:22.443Z,12.93
2023-05-13T02:20:49.593Z,11.57
2023-05-13T02:23:17.774Z,12.32
2023-05-13T02:25:45.005Z,11.50
2023-05-13T02:28:12.284Z,12.57
2023-05-13T02:30:39.215Z,11.57
2023-05-13T02:33:07.114Z,11.15
2023-05-13T02:35:34.310Z,11.07
2023-05-13T02:38:04.084Z,11.32
2023-05-13T02:40:31.095Z,13.50
2023-05-13T02:42:58.077Z,13.77
2023-05-13T02:45:27.470Z,14.63
2023-05-13T02:47:57.732Z,15.63
2023-05-13T02:50:27.177Z,14.23
2023-05-13T02:52:54.225Z,14.35
2023-05-13T02:55:21.466Z,14.40
2023-05-13T02:57:48.525Z,15.20
2023-05-13T03:00:16.210Z,14.73
2023-05-13T03:02:43.386Z,15.43
2023-05-13T03:05:10.568Z,13.85
2023-05-13T03:07:37.627Z,13.23
2023-05-13T03:10:05.206Z,12.50
2023-05-13T03:12:32.282Z,11.98
2023-05-13T03:15:02.574Z,11.98
2023-05-13T03:17:32.080Z,11.10
2023-05-13T03:19:59.116Z,11.82
2023-05-13T03:22:26.284Z,11.52
2023-05-13T03:24:53.383Z,10.70
2023-05-13T03:27:20.559Z,9.75
2023-05-13T03:29:47.596Z,10.07
2023-05-13T03:32:14.646Z,8.32
2023-05-13T03:34:41.625Z,8.63
2023-05-13T03:37:10.006Z,8.70
2023-05-13T03:39:37.245Z,9.85
2023-05-13T03:42:04.488Z,10.05
2023-05-13T03:44:31.530Z,8.45
2023-05-13T03:46:58.776Z,7.85
2023-05-13T03:49:26.015Z,7.93
2023-05-13T03:51:53.092Z,8.60
2023-05-13T03:54:20.111Z,8.23
2023-05-13T03:56:47.201Z,7.97
2023-05-13T03:59:14.289Z,9.45
2023-05-13T04:01:41.514Z,9.98
2023-05-13T04:04:08.572Z,11.10
2023-05-13T04:06:35.869Z,16.60
2023-05-13T04:09:04.747Z,16.90
2023-05-13T04:11:32.403Z,16.70
2023-05-13T04:13:59.513Z,15.50
2023-05-13T04:16:26.527Z,16.17
2023-05-13T04:18:53.546Z,15.98
2023-05-13T04:21:20.786Z,14.18
2023-05-13T04:23:48.109Z,13.55
2023-05-13T04:26:15.109Z,13.15
2023-05-13T04:28:42.100Z,12.80
2023-05-13T04:31:09.104Z,12.18
2023-05-13T04:33:36.070Z,11.57
2023-05-13T04:36:03.630Z,12.40
2023-05-13T04:38:31.672Z,11.55
2023-05-13T04:40:58.750Z,10.48
2023-05-13T04:43:25.904Z,8.73
2023-05-13T04:45:52.950Z,10.18
2023-05-13T04:48:20.066Z,10.98
2023-05-13T04:50:47.388Z,11.15
2023-05-13T04:53:15.041Z,9.98
2023-05-13T04:55:42.283Z,9.55
2023-05-13T04:58:09.360Z,9.60
2023-05-13T05:00:36.368Z,10.38
2023-05-13T05:03:03.537Z,10.85
2023-05-13T05:05:30.689Z,11.23
2023-05-13T05:07:57.732Z,10.85
2023-05-13T05:10:24.741Z,10.68
2023-05-13T05:12:52.018Z,11.38
2023-05-13T05:15:19.122Z,10.65
2023-05-13T05:17:46.244Z,12.88
2023-05-13T05:20:13.839Z,14.43
2023-05-13T05:22:42.270Z,16.83
2023-05-13T05:25:10.234Z,17.10
2023-05-13T05:27:37.232Z,16.30
2023-05-13T05:30:04.864Z,15.45
2023-05-13T05:32:32.058Z,16.00
2023-05-13T05:35:02.237Z,19.00
2023-05-13T05:37:30.456Z,18.40
2023-05-13T05:39:57.733Z,20.08
2023-05-13T05:42:24.990Z,20.73
2023-05-13T05:44:52.015Z,20.38
2023-05-13T05:47:19.610Z,19.25
2023-05-13T05:49:48.619Z,20.02
2023-05-13T05:52:15.791Z,20.02
2023-05-13T05:54:43.099Z,20.40
2023-05-13T05:57:10.240Z,19.63
2023-05-13T05:59:37.285Z,18.48
2023-05-13T06:02:04.700Z,16.83
2023-05-13T06:04:31.784Z,15.70
2023-05-13T06:06:59.073Z,16.92
2023-05-13T06:09:26.089Z,16.55
2023-05-13T06:11:53.285Z,15.90
2023-05-13T06:14:20.301Z,17.20
2023-05-13T06:16:47.307Z,16.80
2023-05-13T06:19:14.349Z,16.23
2023-05-13T06:21:43.344Z,15.27
2023-05-13T06:24:13.039Z,14.18
2023-05-13T06:26:40.128Z,13.27
2023-05-13T06:29:07.212Z,13.13
2023-05-13T06:31:34.494Z,13.52
2023-05-13T06:34:01.777Z,9.70
2023-05-13T06:36:29.282Z,11.43
2023-05-13T06:38:56.385Z,10.07
2023-05-13T06:41:23.518Z,9.15
2023-05-13T06:43:50.718Z,8.07
2023-05-13T06:46:17.825Z,6.40
2023-05-13T06:48:44.922Z,7.13
2023-05-13T06:51:12.201Z,8.68
2023-05-13T06:53:39.352Z,7.28
2023-05-13T06:56:08.319Z,7.20
2023-05-13T06:58:35.541Z,6.03
2023-05-13T07:01:05.799Z,6.25
2023-05-13T07:03:33.018Z,6.65
2023-05-13T07:06:00.121Z,6.35
2023-05-13T07:08:27.208Z,5.88
2023-05-13T07:10:54.282Z,6.93
2023-05-13T07:13:21.492Z,6.75
2023-05-13T07:15:49.250Z,7.47
2023-05-13T07:18:16.383Z,6.20
2023-05-13T07:20:46.850Z,6.25
2023-05-13T07:23:14.043Z,6.13
2023-05-13T07:25:41.120Z,6.15
2023-05-13T07:28:10.259Z,7.07
2023-05-13T07:30:39.591Z,6.95
2023-05-13T07:33:06.627Z,6.65
2023-05-13T07:35:33.689Z,6.40
2023-05-13T07:38:00.766Z,6.00
2023-05-13T07:40:27.900Z,5.20
2023-05-13T07:42:54.980Z,5.22
2023-05-13T07:45:22.474Z,5.68
2023-05-13T07:47:52.714Z,5.38
2023-05-13T07:50:19.935Z,4.38
2023-05-13T07:53:21.577Z,5.40
2023-05-13T07:55:48.672Z,6.38
2023-05-13T07:58:15.845Z,5.88
2023-05-13T08:00:43.096Z,6.80
2023-05-13T08:03:10.313Z,5.85
2023-05-13T08:05:37.448Z,5.75
2023-05-13T08:08:07.386Z,5.80
2023-05-13T08:10:34.476Z,4.97
2023-05-13T08:13:02.399Z,5.25
2023-05-13T08:15:29.522Z,4.60
2023-05-13T08:17:56.689Z,4.60
2023-05-13T08:20:29.995Z,4.50
2023-05-13T08:22:58.688Z,4.30
2023-05-13T08:25:25.871Z,5.07
2023-05-13T08:27:52.998Z,5.18
2023-05-13T08:30:20.142Z,6.00
2023-05-13T08:32:47.424Z,5.90
2023-05-13T08:35:14.675Z,7.60
2023-05-13T08:37:41.753Z,9.52
2023-05-13T08:40:10.361Z,10.80
2023-05-13T08:42:40.176Z,9.48
2023-05-13T08:45:08.775Z,10.18
2023-05-13T08:47:57.218Z,10.05
2023-05-13T08:50:24.479Z,9.77
2023-05-13T08:52:53.030Z,9.93
2023-05-13T08:55:20.444Z,9.70
2023-05-13T08:57:47.680Z,9.43
2023-05-13T09:00:15.245Z,9.98
2023-05-13T09:02:42.710Z,10.13
2023-05-13T09:05:11.505Z,8.68
2023-05-13T09:07:39.164Z,8.50
2023-05-13T09:10:07.265Z,8.85
2023-05-13T09:12:50.210Z,8.02
2023-05-13T09:15:19.307Z,6.82
2023-05-13T09:17:50.356Z,6.68
2023-05-13T09:20:37.972Z,6.43
2023-05-13T09:23:07.324Z,5.85
2023-05-13T09:25:34.862Z,5.53
2023-05-13T09:28:03.680Z,6.30
2023-05-13T09:30:36.807Z,4.43
2023-05-13T09:33:14.531Z,5.15
2023-05-13T09:35:43.658Z,5.32
2023-05-13T09:38:21.059Z,4.90
2023-05-13T09:40:59.201Z,4.15
2023-05-13T09:43:27.530Z,3.90
2023-05-13T09:45:55.395Z,3.13
2023-05-13T09:48:26.362Z,3.58
2023-05-13T09:50:53.839Z,3.13
2023-05-13T09:53:21.436Z,3.45
2023-05-13T09:55:52.868Z,5.75
2023-05-13T09:58:22.982Z,8.05
2023-05-13T10:00:51.298Z,2.28
2023-05-13T10:03:18.492Z,2.60
2023-05-13T10:05:46.009Z,3.25
2023-05-13T10:08:14.065Z,3.38
2023-05-13T10:10:42.013Z,2.58
2023-05-13T10:13:11.104Z,2.80
2023-05-13T10:15:50.804Z,2.85
2023-05-13T10:18:18.206Z,1.85
2023-05-13T10:20:45.793Z,2.00
2023-05-13T10:23:15.661Z,2.08
2023-05-13T10:25:43.175Z,1.92
2023-05-13T10:28:10.815Z,1.95
2023-05-13T10:30:40.761Z,1.90
2023-05-13T10:33:07.783Z,2.53
2023-05-13T10:35:42.668Z,2.53
2023-05-13T10:38:56.164Z,2.03
2023-05-13T10:41:23.441Z,1.77
2023-05-13T10:43:59.148Z,2.13
2023-05-13T10:46:26.318Z,1.70
2023-05-13T10:49:00.055Z,1.58
2023-05-13T10:51:27.393Z,2.10
2023-05-13T10:53:55.966Z,1.50
2023-05-13T10:56:27.076Z,2.58
2023-05-13T10:59:06.642Z,2.05
2023-05-13T11:01:47.407Z,2.70
2023-05-13T11:04:18.625Z,1.98
2023-05-13T11:06:47.162Z,2.50
2023-05-13T11:09:21.080Z,2.08
2023-05-13T11:11:49.245Z,2.53
2023-05-13T11:14:17.358Z,2.00
2023-05-13T11:17:04.495Z,2.13
2023-05-13T11:19:32.991Z,2.55
2023-05-13T11:22:19.939Z,2.20
2023-05-13T11:25:03.084Z,2.50
2023-05-13T11:27:30.142Z,2.35
2023-05-13T11:29:57.469Z,2.58
2023-05-13T11:32:59.680Z,2.30
2023-05-13T11:35:28.758Z,2.00
2023-05-13T11:37:59.119Z,2.03
2023-05-13T11:40:38.504Z,2.28
2023-05-13T11:43:08.307Z,2.20
2023-05-13T11:45:38.523Z,1.90
2023-05-13T11:48:26.924Z,2.05
2023-05-13T11:50:54.584Z,1.73
2023-05-13T11:53:22.991Z,1.77
2023-05-13T11:55:50.315Z,2.22
2023-05-13T11:58:17.511Z,3.10
2023-05-13T12:00:46.487Z,2.40
2023-05-13T12:03:16.320Z,2.90
2023-05-13T12:05:46.815Z,2.33
2023-05-13T12:08:14.100Z,1.92
2023-05-13T12:10:44.757Z,2.03
2023-05-13T12:13:12.793Z,1.88
2023-05-13T12:15:41.079Z,2.10
2023-05-13T12:18:08.336Z,2.10
2023-05-13T12:20:35.861Z,2.30
2023-05-13T12:23:04.604Z,2.65
2023-05-13T12:25:53.994Z,2.92
2023-05-13T12:28:24.308Z,3.13
2023-05-13T12:31:01.027Z,2.83
2023-05-13T12:34:01.485Z,2.30
2023-05-13T12:36:36.652Z,2.03
2023-05-13T12:39:07.286Z,2.70
2023-05-13T12:44:11.178Z,2.55
2023-05-13T12:46:38.730Z,2.60
2023-05-13T12:49:06.222Z,3.15
2023-05-13T12:51:34.318Z,3.22
2023-05-13T12:54:04.074Z,3.42
2023-05-13T12:56:31.813Z,4.10
2023-05-13T12:58:59.292Z,3.75
2023-05-13T13:01:26.845Z,4.68
2023-05-13T13:03:54.201Z,6.45
2023-05-13T13:06:21.429Z,5.78
2023-05-13T13:08:48.796Z,5.78
2023-05-13T13:11:18.949Z,4.63
2023-05-13T13:13:46.711Z,4.80
2023-05-13T13:16:14.370Z,3.95
2023-05-13T13:18:42.507Z,3.75
2023-05-13T13:21:10.470Z,3.33
2023-05-13T13:23:37.483Z,3.17
2023-05-13T13:26:04.672Z,3.38
2023-05-13T13:28:32.116Z,2.60
2023-05-13T13:31:00.343Z,3.50
2023-05-13T13:33:27.818Z,3.42
2023-05-13T13:35:54.923Z,3.50
2023-05-13T13:38:22.365Z,3.55
2023-05-13T13:40:49.545Z,3.78
2023-05-13T13:43:16.645Z,3.25
2023-05-13T13:45:43.895Z,2.47
2023-05-13T13:48:11.315Z,2.53
2023-05-13T13:50:38.793Z,2.90
2023-05-13T13:53:06.000Z,3.78
2023-05-13T13:55:33.162Z,2.90
2023-05-13T13:58:00.462Z,3.30
2023-05-13T14:00:27.989Z,3.97
2023-05-13T14:02:55.341Z,3.05
2023-05-13T14:05:22.616Z,3.25
2023-05-13T14:07:54.273Z,3.40
2023-05-13T14:10:22.144Z,3.75
2023-05-13T14:12:49.612Z,3.75
2023-05-13T14:15:17.046Z,3.60
2023-05-13T14:17:46.469Z,3.72
2023-05-13T14:20:13.580Z,3.75
2023-05-13T14:22:40.761Z,4.05
2023-05-13T14:25:09.405Z,3.83
2023-05-13T14:27:36.813Z,4.38
2023-05-13T14:30:05.420Z,3.80
2023-05-13T14:32:33.310Z,3.70
2023-05-13T14:35:00.572Z,4.05
2023-05-13T14:37:27.918Z,3.55
2023-05-13T14:39:55.933Z,3.50
2023-05-13T14:42:29.118Z,3.63
2023-05-13T14:44:56.304Z,3.35
2023-05-13T14:47:23.580Z,3.20
2023-05-13T14:49:50.856Z,3.05
2023-05-13T14:52:18.051Z,3.53
2023-05-13T14:54:45.069Z,3.05
2023-05-13T14:57:12.397Z,3.33
2023-05-13T14:59:39.647Z,3.13
2023-05-13T15:02:06.693Z,3.28
2023-05-13T15:04:33.887Z,3.50
2023-05-13T15:07:02.260Z,4.78
2023-05-13T15:09:29.579Z,5.53
2023-05-13T15:11:56.713Z,5.32
2023-05-13T15:14:26.023Z,5.05
2023-05-13T15:16:53.441Z,5.03
2023-05-13T15:19:20.705Z,5.68
2023-05-13T15:21:47.861Z,5.13
2023-05-13T15:24:14.890Z,5.80
2023-05-13T15:26:42.230Z,7.60
2023-05-13T15:29:09.514Z,5.28
2023-05-13T15:31:36.606Z,5.35
2023-05-13T15:34:03.683Z,6.00
2023-05-13T15:36:31.243Z,5.55
2023-05-13T15:38:58.320Z,6.13
2023-05-13T15:41:25.396Z,6.10
2023-05-13T15:43:52.478Z,5.10
2023-05-13T15:46:19.775Z,4.80
2023-05-13T15:48:47.326Z,5.30
2023-05-13T15:51:14.323Z,5.88
2023-05-13T15:53:41.389Z,6.13
2023-05-13T15:56:31.703Z,4.95
2023-05-13T15:58:58.757Z,5.60
2023-05-13T16:01:25.963Z,4.70
2023-05-13T16:03:53.262Z,4.90
2023-05-13T16:06:20.464Z,5.18
2023-05-13T16:08:49.151Z,5.00
2023-05-13T16:11:27.284Z,5.22
2023-05-13T16:13:54.360Z,5.32
2023-05-13T16:16:21.853Z,6.22
2023-05-13T16:18:49.154Z,6.60
2023-05-13T16:21:16.603Z,7.05
2023-05-13T16:23:43.696Z,6.55
2023-05-13T16:26:10.707Z,6.45
2023-05-13T16:28:38.163Z,7.40
2023-05-13T16:31:05.252Z,8.95
2023-05-13T16:33:33.399Z,10.25
2023-05-13T16:36:00.682Z,9.98
2023-05-13T16:38:27.941Z,10.00
2023-05-13T16:40:56.225Z,8.20
2023-05-13T16:43:23.373Z,9.73
2023-05-13T16:45:50.424Z,11.48
2023-05-13T16:48:17.610Z,10.70
2023-05-13T16:50:44.750Z,10.15
2023-05-13T16:53:12.124Z,8.80
2023-05-13T16:55:39.510Z,10.45
2023-05-13T16:58:06.612Z,11.95
2023-05-13T17:00:33.630Z,16.30
2023-05-13T17:03:01.546Z,19.63
2023-05-13T17:05:30.153Z,23.00
2023-05-13T17:07:57.491Z,30.23
2023-05-13T17:10:24.661Z,32.60
2023-05-13T17:12:53.391Z,20.58
2023-05-13T17:15:20.469Z,18.35
2023-05-13T17:17:47.729Z,13.25
2023-05-13T17:20:14.828Z,15.77
2023-05-13T17:22:47.440Z,12.50
2023-05-13T17:25:15.215Z,13.15
2023-05-13T17:27:42.291Z,13.10
2023-05-13T17:30:10.012Z,12.80
2023-05-13T17:32:37.190Z,11.75
2023-05-13T17:35:05.138Z,13.07
2023-05-13T17:37:32.257Z,12.57
2023-05-13T17:40:01.634Z,12.90
2023-05-13T17:42:30.475Z,16.67
2023-05-13T17:44:57.667Z,17.17
2023-05-13T17:47:24.790Z,19.35
2023-05-13T17:49:51.885Z,18.40
2023-05-13T17:52:18.917Z,17.90
2023-05-13T17:54:46.221Z,18.55
2023-05-13T17:57:14.511Z,22.13
2023-05-13T17:59:41.647Z,17.48
2023-05-13T18:02:09.105Z,10.70
2023-05-13T18:04:36.252Z,9.70
2023-05-13T18:07:03.492Z,10.73
2023-05-13T18:09:30.644Z,12.60
2023-05-13T18:11:57.754Z,13.73
2023-05-13T18:14:24.927Z,15.38
2023-05-13T18:16:52.122Z,17.80
2023-05-13T18:19:19.212Z,24.80
2023-05-13T18:21:46.870Z,19.15
2023-05-13T18:24:13.960Z,16.55
2023-05-13T18:26:41.368Z,16.98
2023-05-13T18:29:08.392Z,18.55
2023-05-13T18:31:35.550Z,16.48
2023-05-13T18:34:06.946Z,19.95
2023-05-13T18:36:34.582Z,22.10
2023-05-13T18:39:05.511Z,26.63
2023-05-13T18:41:33.083Z,22.23
2023-05-13T18:44:00.326Z,24.38
2023-05-13T18:46:27.955Z,21.42
2023-05-13T18:48:55.426Z,18.50
2023-05-13T18:51:23.273Z,17.92
2023-05-13T18:53:50.547Z,19.30
2023-05-13T18:56:17.675Z,20.85
2023-05-13T18:58:46.942Z,19.92
2023-05-13T19:01:15.998Z,22.48
2023-05-13T19:03:43.901Z,22.23
2023-05-13T19:06:11.233Z,22.65
2023-05-13T19:08:38.732Z,23.02
2023-05-13T19:11:05.801Z,23.75
2023-05-13T19:13:39.770Z,23.73
2023-05-13T19:16:14.178Z,22.30
2023-05-13T19:18:41.456Z,22.60
2023-05-13T19:21:08.783Z,23.80
2023-05-13T19:23:37.186Z,21.85
2023-05-13T19:26:04.579Z,24.40
2023-05-13T19:28:32.477Z,28.48
2023-05-13T19:31:00.062Z,31.08
2023-05-13T19:33:27.537Z,32.08
2023-05-13T19:35:54.685Z,31.38
2023-05-13T19:38:41.750Z,30.30
2023-05-13T19:41:08.868Z,27.70
2023-05-13T19:43:36.003Z,27.75
2023-05-13T19:46:03.407Z,33.03
2023-05-13T19:48:30.851Z,31.00
2023-05-13T19:50:58.669Z,32.13
2023-05-13T19:53:26.384Z,31.48
2023-05-13T19:55:53.525Z,29.38
2023-05-13T19:58:20.915Z,26.08
2023-05-13T20:00:48.647Z,24.02
2023-05-13T20:03:15.982Z,22.20
2023-05-13T20:05:43.534Z,20.23
2023-05-13T20:08:11.165Z,19.80
2023-05-13T20:10:40.672Z,18.70
2023-05-13T20:13:08.095Z,17.50
2023-05-13T20:15:36.039Z,17.27
2023-05-13T20:18:03.209Z,17.75
2023-05-13T20:20:30.509Z,17.27
2023-05-13T20:22:58.184Z,17.48
2023-05-13T20:25:25.849Z,19.67
2023-05-13T20:27:52.942Z,18.45
2023-05-13T20:30:21.274Z,18.73
2023-05-13T20:32:48.778Z,17.25
2023-05-13T20:35:15.946Z,13.57
2023-05-13T20:37:43.171Z,12.68
2023-05-13T20:40:10.619Z,12.02
2023-05-13T20:42:37.695Z,12.00
2023-05-13T20:45:06.040Z,11.48
2023-05-13T20:47:33.203Z,11.98
2023-05-13T20:50:03.993Z,11.25
2023-05-13T20:52:34.135Z,11.65
2023-05-13T20:55:01.329Z,10.77
2023-05-13T20:57:28.600Z,10.50
2023-05-13T20:59:58.389Z,11.35
2023-05-13T21:02:26.224Z,11.03
2023-05-13T21:04:54.200Z,14.40
2023-05-13T21:07:21.306Z,14.38
2023-05-13T21:09:48.595Z,13.43
2023-05-13T21:12:15.867Z,13.68
2023-05-13T21:14:43.370Z,13.07
2023-05-13T21:17:10.858Z,11.88
2023-05-13T21:19:38.113Z,11.73
2023-05-13T21:22:06.086Z,11.55
2023-05-13T21:24:33.400Z,15.80
2023-05-13T21:27:00.582Z,18.42
2023-05-13T21:29:30.369Z,19.48
2023-05-13T21:31:59.270Z,20.48
2023-05-13T21:34:26.671Z,17.23
2023-05-13T21:36:54.075Z,15.45
2023-05-13T21:39:21.373Z,17.38
2023-05-13T21:42:00.289Z,18.55
2023-05-13T21:44:28.041Z,19.45
2023-05-13T21:46:55.381Z,20.75
2023-05-13T21:49:22.889Z,19.98
2023-05-13T21:51:50.212Z,18.90
2023-05-13T21:54:18.908Z,15.32
2023-05-13T21:56:46.931Z,15.43
2023-05-13T21:59:14.097Z,16.13
2023-05-13T22:01:41.326Z,15.68
2023-05-13T22:04:09.080Z,14.10
2023-05-13T22:06:36.447Z,12.48
2023-05-13T22:09:03.881Z,12.45
2023-05-13T22:11:30.942Z,12.98
2023-05-13T22:14:01.643Z,14.52
2023-05-13T22:16:29.106Z,13.75
2023-05-13T22:18:58.888Z,12.98
2023-05-13T22:21:26.551Z,14.13
2023-05-13T22:23:53.750Z,15.05
2023-05-13T22:26:22.045Z,16.95
2023-05-13T22:28:49.213Z,24.17
2023-05-13T22:31:17.024Z,21.80
2023-05-13T22:33:44.574Z,20.65
2023-05-13T22:36:14.771Z,21.08
2023-05-13T22:38:42.787Z,18.83
2023-05-13T22:41:09.936Z,17.50
2023-05-13T22:43:40.191Z,18.42
2023-05-13T22:46:07.410Z,16.40
2023-05-13T22:48:34.619Z,16.23
2023-05-13T22:51:01.885Z,15.07
2023-05-13T22:53:29.345Z,12.85
2023-05-13T22:55:56.554Z,12.10
2023-05-13T22:58:23.783Z,12.30
2023-05-13T23:00:51.026Z,11.73
2023-05-13T23:03:18.241Z,12.15
2023-05-13T23:05:48.296Z,12.43
2023-05-13T23:08:15.599Z,12.20
2023-05-13T23:10:42.704Z,11.88
2023-05-13T23:13:09.905Z,12.15
2023-05-13T23:15:37.296Z,13.80
2023-05-13T23:18:04.498Z,14.95
2023-05-13T23:20:31.862Z,14.48
2023-05-13T23:22:59.202Z,14.43
2023-05-13T23:25:26.542Z,13.95
2023-05-13T23:27:53.686Z,15.15
2023-05-13T23:30:21.592Z,13.68
2023-05-13T23:32:49.020Z,14.45
2023-05-13T23:35:16.099Z,13.38
2023-05-13T23:37:43.186Z,12.65
2023-05-13T23:40:10.612Z,13.45
2023-05-13T23:42:38.251Z,13.30
2023-05-13T23:45:05.755Z,12.98
2023-05-13T23:47:33.056Z,12.68
2023-05-13T23:50:00.447Z,12.75
2023-05-13T23:52:27.433Z,13.25
2023-05-13T23:54:54.563Z,13.32
2023-05-13T23:57:22.344Z,12.57
2023-05-13T23:59:49.418Z,13.68
